createdAt,value
2016-08-08T00:00:37.662Z,99.99
2016-08-08T00:01:37.656Z,99.99
2016-08-08T00:02:38.204Z,99.99
2016-08-08T00:03:37.656Z,99.99
2016-08-08T00:04:37.656Z,99.99
2016-08-08T00:05:37.640Z,99.99
2016-08-08T00:06:37.663Z,99.99
2016-08-08T00:07:37.646Z,99.99
2016-08-08T00:08:37.699Z,99.99
2016-08-08T00:09:37.658Z,99.99
2016-08-08T00:10:37.641Z,99.99
2016-08-08T00:12:37.694Z,99.99
2016-08-08T00:13:37.682Z,99.99
2016-08-08T00:14:37.668Z,99.99
2016-08-08T00:15:37.693Z,99.99
2016-08-08T00:16:37.700Z,99.99
2016-08-08T00:17:37.836Z,99.99
2016-08-08T00:18:37.688Z,99.99
2016-08-08T00:19:37.701Z,99.99
2016-08-08T00:20:37.664Z,99.99
2016-08-08T00:21:38.018Z,99.99
2016-08-08T00:22:38.273Z,99.99
2016-08-08T00:23:37.681Z,99.99
2016-08-08T00:24:37.744Z,99.99
2016-08-08T00:25:37.695Z,99.99
2016-08-08T00:27:37.754Z,99.99
2016-08-08T00:28:37.719Z,99.99
2016-08-08T00:29:37.693Z,99.99
2016-08-08T00:30:37.859Z,99.99
2016-08-08T00:31:37.690Z,99.99
2016-08-08T00:32:37.716Z,99.99
2016-08-08T00:33:37.675Z,99.99
2016-08-08T00:34:37.721Z,99.99
2016-08-08T00:35:37.689Z,99.99
2016-08-08T00:36:37.695Z,99.99
2016-08-08T00:37:37.705Z,99.99
2016-08-08T00:38:37.714Z,99.99
2016-08-08T00:39:37.720Z,99.99
2016-08-08T00:40:37.703Z,99.99
2016-08-08T00:42:37.698Z,99.99
2016-08-08T00:43:37.925Z,99.99
2016-08-08T00:44:37.690Z,99.99
2016-08-08T00:45:37.716Z,99.99
2016-08-08T00:46:37.721Z,99.99
2016-08-08T00:47:37.695Z,99.99
2016-08-08T00:48:37.735Z,99.99
2016-08-08T00:49:37.720Z,99.99
2016-08-08T00:50:37.689Z,99.99
2016-08-08T00:51:37.725Z,99.99
2016-08-08T00:52:37.688Z,99.99
2016-08-08T00:53:37.725Z,99.99
2016-08-08T00:54:37.726Z,99.99
2016-08-08T00:55:37.735Z,99.99
2016-08-08T00:57:38.028Z,99.99
2016-08-08T00:58:37.691Z,99.99
2016-08-08T00:59:37.692Z,99.99
2016-08-08T01:00:37.751Z,99.99
2016-08-08T01:01:37.715Z,99.99
2016-08-08T01:02:37.742Z,99.99
2016-08-08T01:03:37.727Z,99.99
2016-08-08T01:04:37.708Z,99.99
2016-08-08T01:05:37.697Z,99.99
2016-08-08T01:06:37.716Z,99.99
2016-08-08T01:07:37.719Z,99.99
2016-08-08T01:08:37.707Z,99.99
2016-08-08T01:09:37.736Z,99.99
2016-08-08T01:10:38.056Z,99.99
2016-08-08T01:12:38.019Z,99.99
2016-08-08T01:13:37.789Z,99.99
2016-08-08T01:14:37.719Z,99.99
2016-08-08T01:15:38.770Z,99.99
2016-08-08T01:16:37.733Z,99.99
2016-08-08T01:17:38.426Z,99.99
2016-08-08T01:18:39.063Z,99.99
2016-08-08T01:19:38.142Z,99.99
2016-08-08T01:20:37.722Z,99.99
2016-08-08T01:21:38.354Z,99.99
2016-08-08T01:22:37.721Z,99.99
2016-08-08T01:23:37.720Z,99.99
2016-08-08T01:24:37.731Z,99.99
2016-08-08T01:25:37.754Z,99.99
2016-08-08T01:26:38.245Z,99.99
2016-08-08T01:27:37.710Z,99.99
2016-08-08T01:28:38.024Z,99.99
2016-08-08T01:29:37.714Z,99.99
2016-08-08T01:30:37.722Z,99.99
2016-08-08T01:31:37.723Z,99.99
2016-08-08T01:32:37.733Z,99.99
2016-08-08T01:33:37.752Z,99.99
2016-08-08T01:34:37.762Z,99.99
2016-08-08T01:35:37.972Z,99.99
2016-08-08T01:36:37.737Z,99.99
2016-08-08T01:37:38.123Z,99.99
2016-08-08T01:38:37.788Z,99.99
2016-08-08T01:39:38.212Z,99.99
2016-08-08T01:40:38.134Z,99.99
2016-08-08T01:41:37.759Z,99.99
2016-08-08T01:42:37.807Z,99.99
2016-08-08T01:43:37.758Z,99.99
2016-08-08T01:44:37.756Z,99.99
2016-08-08T01:45:37.752Z,99.99
2016-08-08T01:46:37.832Z,99.99
2016-08-08T01:47:37.729Z,99.99
2016-08-08T01:48:37.756Z,99.99
2016-08-08T01:49:37.751Z,99.99
2016-08-08T01:50:37.747Z,99.99
2016-08-08T01:51:37.759Z,99.99
2016-08-08T01:52:37.754Z,99.99
2016-08-08T01:53:38.270Z,99.99
2016-08-08T01:54:37.754Z,99.99
2016-08-08T01:55:37.740Z,99.99
2016-08-08T01:56:37.805Z,99.99
2016-08-08T01:57:37.753Z,99.99
2016-08-08T01:58:38.132Z,99.99
2016-08-08T01:59:37.751Z,99.99
2016-08-08T02:00:38.168Z,99.99
2016-08-08T02:01:37.757Z,99.99
2016-08-08T02:02:37.761Z,99.99
2016-08-08T02:03:37.754Z,99.99
2016-08-08T02:04:37.757Z,99.99
2016-08-08T02:05:37.754Z,99.99
2016-08-08T02:06:37.788Z,99.99
2016-08-08T02:07:38.243Z,99.99
2016-08-08T02:08:37.762Z,99.99
2016-08-08T02:09:37.795Z,99.99
2016-08-08T02:10:37.784Z,99.99
2016-08-08T02:11:38.315Z,99.99
2016-08-08T02:12:37.781Z,99.99
2016-08-08T02:13:37.802Z,99.99
2016-08-08T02:14:38.234Z,99.99
2016-08-08T02:15:37.774Z,99.99
2016-08-08T02:16:38.603Z,99.99
2016-08-08T02:17:38.090Z,99.99
2016-08-08T02:18:38.372Z,99.99
2016-08-08T02:19:37.797Z,99.99
2016-08-08T02:20:37.790Z,99.99
2016-08-08T02:21:37.785Z,99.99
2016-08-08T02:22:37.781Z,99.99
2016-08-08T02:23:37.782Z,99.99
2016-08-08T02:24:37.846Z,99.99
2016-08-08T02:25:38.297Z,99.99
2016-08-08T02:26:37.815Z,99.99
2016-08-08T02:27:37.829Z,99.99
2016-08-08T02:28:37.786Z,99.99
2016-08-08T02:29:38.135Z,99.99
2016-08-08T02:30:37.788Z,99.99
2016-08-08T02:31:37.785Z,99.99
2016-08-08T02:32:37.849Z,99.99
2016-08-08T02:33:37.794Z,99.99
2016-08-08T02:34:37.787Z,99.99
2016-08-08T02:35:37.785Z,99.99
2016-08-08T02:36:37.791Z,99.99
2016-08-08T02:37:37.830Z,99.99
2016-08-08T02:38:37.788Z,99.99
2016-08-08T02:39:37.943Z,99.99
2016-08-08T02:40:37.810Z,99.99
2016-08-08T02:41:37.798Z,99.99
2016-08-08T02:42:39.121Z,99.99
2016-08-08T02:43:37.792Z,99.99
2016-08-08T02:44:38.597Z,99.99
2016-08-08T02:45:37.923Z,99.99
2016-08-08T02:46:38.959Z,99.99
2016-08-08T02:47:37.967Z,99.99
2016-08-08T02:48:37.908Z,99.99
2016-08-08T02:49:37.849Z,99.99
2016-08-08T02:50:38.087Z,99.99
2016-08-08T02:51:37.894Z,99.99
2016-08-08T02:52:38.064Z,99.99
2016-08-08T02:53:38.302Z,99.99
2016-08-08T02:54:39.479Z,99.99
2016-08-08T02:55:37.812Z,99.99
2016-08-08T02:56:38.116Z,99.99
2016-08-08T02:57:37.908Z,99.99
2016-08-08T02:58:37.816Z,99.99
2016-08-08T02:59:37.818Z,99.99
2016-08-08T03:00:37.857Z,99.99
2016-08-08T03:01:38.534Z,99.99
2016-08-08T03:02:37.817Z,99.99
2016-08-08T03:03:37.953Z,99.99
2016-08-08T03:04:37.826Z,99.99
2016-08-08T03:05:37.827Z,99.99
2016-08-08T03:06:37.972Z,99.99
2016-08-08T03:07:37.799Z,99.99
2016-08-08T03:08:37.875Z,99.99
2016-08-08T03:09:37.903Z,99.99
2016-08-08T03:10:37.864Z,99.99
2016-08-08T03:11:38.575Z,99.99
2016-08-08T03:12:37.821Z,99.99
2016-08-08T03:13:37.848Z,99.99
2016-08-08T03:14:37.856Z,99.99
2016-08-08T03:15:37.848Z,99.99
2016-08-08T03:16:38.004Z,99.99
2016-08-08T03:17:37.959Z,99.99
2016-08-08T03:18:38.151Z,99.99
2016-08-08T03:19:37.942Z,99.99
2016-08-08T03:20:38.058Z,99.99
2016-08-08T03:21:38.096Z,99.99
2016-08-08T03:22:38.151Z,99.99
2016-08-08T03:23:37.848Z,99.99
2016-08-08T03:24:37.851Z,99.99
2016-08-08T03:25:38.969Z,99.99
2016-08-08T03:26:38.665Z,99.99
2016-08-08T03:27:38.176Z,99.99
2016-08-08T03:28:38.300Z,99.99
2016-08-08T03:29:38.541Z,99.99
2016-08-08T03:30:38.134Z,99.99
2016-08-08T03:31:38.718Z,99.99
2016-08-08T03:32:38.630Z,99.99
2016-08-08T03:33:37.986Z,99.99
2016-08-08T03:34:38.009Z,99.99
2016-08-08T03:35:38.105Z,99.99
2016-08-08T03:36:38.961Z,99.99
2016-08-08T03:37:37.985Z,99.99
2016-08-08T03:38:37.859Z,99.99
2016-08-08T03:39:37.826Z,99.99
2016-08-08T03:40:39.411Z,99.99
2016-08-08T03:41:37.889Z,99.99
2016-08-08T03:42:37.975Z,99.99
2016-08-08T03:43:37.880Z,99.99
2016-08-08T03:44:37.856Z,99.99
2016-08-08T03:45:37.842Z,99.99
2016-08-08T03:46:38.190Z,99.99
2016-08-08T03:47:37.941Z,99.99
2016-08-08T03:48:38.140Z,99.99
2016-08-08T03:49:38.031Z,99.99
2016-08-08T03:50:37.969Z,99.99
2016-08-08T03:51:38.089Z,99.99
2016-08-08T03:52:37.940Z,99.99
2016-08-08T03:53:38.030Z,99.99
2016-08-08T03:54:37.892Z,99.99
2016-08-08T03:55:38.031Z,99.99
2016-08-08T03:56:37.891Z,99.99
2016-08-08T03:57:38.950Z,99.99
2016-08-08T03:58:37.958Z,99.99
2016-08-08T03:59:38.457Z,99.99
2016-08-08T04:00:38.152Z,99.99
2016-08-08T04:01:37.888Z,99.99
2016-08-08T04:02:38.070Z,99.99
2016-08-08T04:03:37.972Z,99.99
2016-08-08T04:04:37.878Z,99.99
2016-08-08T04:05:37.858Z,99.99
2016-08-08T04:06:38.091Z,99.99
2016-08-08T04:07:37.869Z,99.99
2016-08-08T04:08:38.092Z,99.99
2016-08-08T04:09:38.553Z,99.99
2016-08-08T04:10:37.882Z,99.99
2016-08-08T04:11:37.882Z,99.99
2016-08-08T04:12:37.955Z,99.99
2016-08-08T04:13:37.934Z,99.99
2016-08-08T04:14:37.921Z,99.99
2016-08-08T04:15:38.390Z,99.99
2016-08-08T04:16:37.905Z,99.99
2016-08-08T04:17:37.975Z,99.99
2016-08-08T04:18:37.986Z,99.99
2016-08-08T04:19:38.292Z,99.99
2016-08-08T04:20:38.574Z,99.99
2016-08-08T04:21:38.206Z,99.99
2016-08-08T04:22:38.123Z,99.99
2016-08-08T04:23:37.882Z,99.99
2016-08-08T04:24:37.882Z,99.99
2016-08-08T04:25:37.885Z,99.99
2016-08-08T04:26:37.904Z,99.99
2016-08-08T04:27:38.275Z,99.99
2016-08-08T04:28:38.577Z,99.99
2016-08-08T04:29:37.921Z,99.99
2016-08-08T04:30:38.160Z,99.99
2016-08-08T04:31:38.153Z,99.99
2016-08-08T04:32:37.972Z,99.99
2016-08-08T04:33:38.222Z,99.99
2016-08-08T04:34:37.980Z,99.99
2016-08-08T04:35:38.301Z,99.99
2016-08-08T04:36:38.038Z,99.99
2016-08-08T04:37:38.084Z,99.99
2016-08-08T04:38:38.186Z,99.99
2016-08-08T04:39:37.912Z,99.99
2016-08-08T04:40:38.035Z,99.99
2016-08-08T04:41:38.036Z,99.99
2016-08-08T04:42:37.997Z,99.99
2016-08-08T04:43:38.076Z,99.99
2016-08-08T04:44:38.161Z,99.99
2016-08-08T04:45:37.919Z,99.99
2016-08-08T04:46:37.920Z,99.99
2016-08-08T04:47:37.946Z,99.99
2016-08-08T04:48:37.910Z,99.99
2016-08-08T04:49:37.940Z,99.99
2016-08-08T04:50:37.918Z,99.99
2016-08-08T04:51:37.910Z,99.99
2016-08-08T04:52:37.918Z,99.99
2016-08-08T04:53:37.946Z,99.99
2016-08-08T04:54:37.972Z,99.99
2016-08-08T04:55:37.917Z,99.99
2016-08-08T04:56:37.952Z,99.99
2016-08-08T04:57:37.914Z,99.99
2016-08-08T04:58:37.913Z,99.99
2016-08-08T04:59:37.914Z,99.99
2016-08-08T05:00:37.899Z,99.99
2016-08-08T05:01:37.914Z,99.99
2016-08-08T05:02:37.927Z,99.99
2016-08-08T05:03:37.914Z,99.99
2016-08-08T05:04:38.902Z,99.99
2016-08-08T05:05:37.945Z,99.99
2016-08-08T05:06:37.945Z,99.99
2016-08-08T05:07:37.944Z,99.99
2016-08-08T05:08:37.930Z,99.99
2016-08-08T05:09:37.942Z,99.99
2016-08-08T05:10:37.925Z,99.99
2016-08-08T05:11:37.945Z,99.99
2016-08-08T05:13:37.947Z,99.99
2016-08-08T05:14:37.957Z,99.99
2016-08-08T05:15:37.929Z,99.99
2016-08-08T05:16:37.951Z,99.99
2016-08-08T05:17:37.951Z,99.99
2016-08-08T05:18:37.944Z,99.99
2016-08-08T05:19:37.951Z,99.99
2016-08-08T05:20:37.952Z,99.99
2016-08-08T05:21:37.946Z,99.99
2016-08-08T05:22:37.997Z,99.99
2016-08-08T05:23:37.958Z,99.99
2016-08-08T05:24:37.999Z,99.99
2016-08-08T05:25:37.948Z,99.99
2016-08-08T05:26:37.946Z,99.99
2016-08-08T05:28:37.967Z,99.99
2016-08-08T05:29:37.945Z,99.99
2016-08-08T05:30:37.952Z,99.99
2016-08-08T05:31:37.983Z,99.99
2016-08-08T05:32:37.969Z,99.99
2016-08-08T05:33:37.979Z,99.99
2016-08-08T05:34:37.983Z,99.99
2016-08-08T05:35:37.994Z,99.99
2016-08-08T05:36:37.952Z,99.99
2016-08-08T05:37:37.977Z,99.99
2016-08-08T05:38:37.970Z,99.99
2016-08-08T05:39:37.977Z,99.99
2016-08-08T05:40:37.975Z,99.99
2016-08-08T05:41:37.971Z,99.99
2016-08-08T05:43:37.980Z,99.99
2016-08-08T05:44:37.977Z,99.99
2016-08-08T05:45:37.981Z,99.99
2016-08-08T05:46:37.980Z,99.73
2016-08-08T05:47:38.038Z,99.83
2016-08-08T05:48:37.975Z,99.83
2016-08-08T05:49:37.978Z,99.73
2016-08-08T05:50:37.967Z,99.98
2016-08-08T05:51:37.991Z,99.54
2016-08-08T05:52:38.000Z,99.59
2016-08-08T05:53:37.974Z,99.59
2016-08-08T05:54:37.982Z,98.54
2016-08-08T05:55:37.971Z,98.34
2016-08-08T05:56:37.987Z,98.34
2016-08-08T05:57:37.983Z,98.24
2016-08-08T05:58:37.969Z,98.92
2016-08-08T05:59:37.973Z,98.34
2016-08-08T06:00:37.978Z,97.57
2016-08-08T06:01:38.009Z,97.47
2016-08-08T06:02:38.023Z,97.38
2016-08-08T06:03:37.975Z,97.47
2016-08-08T06:04:38.028Z,97.57
2016-08-08T06:05:37.989Z,97.47
2016-08-08T06:06:37.991Z,97.76
2016-08-08T06:07:38.010Z,97.38
2016-08-08T06:08:37.997Z,98.34
2016-08-08T06:09:37.974Z,97.96
2016-08-08T06:10:38.007Z,97.86
2016-08-08T06:11:37.983Z,98.34
2016-08-08T06:12:37.990Z,99.49
2016-08-08T06:13:38.019Z,98.68
2016-08-08T06:14:37.983Z,98.87
2016-08-08T06:15:37.986Z,99.54
2016-08-08T06:16:37.983Z,99.35
2016-08-08T06:17:37.996Z,99.54
2016-08-08T06:18:38.009Z,99.26
2016-08-08T06:19:38.006Z,99.54
2016-08-08T06:20:38.009Z,99.54
2016-08-08T06:21:37.999Z,99.35
2016-08-08T06:22:37.991Z,99.44
2016-08-08T06:23:38.009Z,99.99
2016-08-08T06:24:38.029Z,99.99
2016-08-08T06:25:37.993Z,99.99
2016-08-08T06:26:38.037Z,99.59
2016-08-08T06:27:38.016Z,99.88
2016-08-08T06:28:38.014Z,99.88
2016-08-08T06:29:38.032Z,99.68
2016-08-08T06:30:38.050Z,99.99
2016-08-08T06:31:38.043Z,99.68
2016-08-08T06:32:38.010Z,99.99
2016-08-08T06:33:38.042Z,99.99
2016-08-08T06:34:38.047Z,99.99
2016-08-08T06:35:38.043Z,99.99
2016-08-08T06:36:38.045Z,99.99
2016-08-08T06:37:38.154Z,99.99
2016-08-08T06:38:38.013Z,99.99
2016-08-08T06:39:38.071Z,99.99
2016-08-08T06:40:38.101Z,99.99
2016-08-08T06:41:38.608Z,99.99
2016-08-08T06:42:38.162Z,99.99
2016-08-08T06:43:38.034Z,99.99
2016-08-08T06:44:38.135Z,99.99
2016-08-08T06:45:38.194Z,99.99
2016-08-08T06:46:38.131Z,99.99
2016-08-08T06:47:38.104Z,99.99
2016-08-08T06:48:38.071Z,99.99
2016-08-08T06:49:38.154Z,99.99
2016-08-08T06:50:38.058Z,99.99
2016-08-08T06:51:38.070Z,99.99
2016-08-08T06:52:38.050Z,99.99
2016-08-08T06:53:38.094Z,99.99
2016-08-08T06:54:38.093Z,99.99
2016-08-08T06:55:38.076Z,99.99
2016-08-08T06:56:38.033Z,99.99
2016-08-08T06:57:38.069Z,99.99
2016-08-08T06:58:38.039Z,99.99
2016-08-08T06:59:38.099Z,99.99
2016-08-08T07:00:38.071Z,99.99
2016-08-08T07:01:38.071Z,99.99
2016-08-08T07:02:38.072Z,99.99
2016-08-08T07:03:38.028Z,99.99
2016-08-08T07:04:38.077Z,99.99
2016-08-08T07:05:38.047Z,99.99
2016-08-08T07:06:38.049Z,99.99
2016-08-08T07:07:38.037Z,99.99
2016-08-08T07:08:38.056Z,99.99
2016-08-08T07:09:38.041Z,99.99
2016-08-08T07:10:38.074Z,99.99
2016-08-08T07:11:38.052Z,99.99
2016-08-08T07:12:38.118Z,99.68
2016-08-08T07:13:38.213Z,99.68
2016-08-08T07:14:38.057Z,99.88
2016-08-08T07:15:38.049Z,99.49
2016-08-08T07:16:38.912Z,99.88
2016-08-08T07:17:38.560Z,98.72
2016-08-08T07:18:38.073Z,99.99
2016-08-08T07:19:38.060Z,99.21
2016-08-08T07:20:38.376Z,98.29
2016-08-08T07:21:38.841Z,97.91
2016-08-08T07:22:38.093Z,98.68
2016-08-08T07:23:39.075Z,96.75
2016-08-08T07:24:38.632Z,97.33
2016-08-08T07:25:38.988Z,95.98
2016-08-08T07:26:38.073Z,96.08
2016-08-08T07:27:38.106Z,96.66
2016-08-08T07:28:38.614Z,97.04
2016-08-08T07:29:38.124Z,96.56
2016-08-08T07:30:38.109Z,95.98
2016-08-08T07:31:38.644Z,96.47
2016-08-08T07:32:38.225Z,95.84
2016-08-08T07:33:38.072Z,95.7
2016-08-08T07:34:38.496Z,94.3
2016-08-08T07:35:38.064Z,94.01
2016-08-08T07:36:38.067Z,94.49
2016-08-08T07:37:38.355Z,94.78
2016-08-08T07:38:38.123Z,93.91
2016-08-08T07:39:38.087Z,94.49
2016-08-08T07:40:38.106Z,93.91
2016-08-08T07:41:38.115Z,94.2
2016-08-08T07:42:38.086Z,94.49
2016-08-08T07:43:38.214Z,94.87
2016-08-08T07:44:38.085Z,94.54
2016-08-08T07:45:38.094Z,94.73
2016-08-08T07:46:38.403Z,94.92
2016-08-08T07:47:38.105Z,95.12
2016-08-08T07:48:38.077Z,95.98
2016-08-08T07:49:38.649Z,95.98
2016-08-08T07:50:38.202Z,96.17
2016-08-08T07:51:38.121Z,97.14
2016-08-08T07:52:38.433Z,96.66
2016-08-08T07:53:39.025Z,96.94
2016-08-08T07:54:38.122Z,95.89
2016-08-08T07:55:38.101Z,97.04
2016-08-08T07:56:38.183Z,96.66
2016-08-08T07:57:38.103Z,96.47
2016-08-08T07:58:38.108Z,97.14
2016-08-08T07:59:38.079Z,97.81
2016-08-08T08:00:38.112Z,97.09
2016-08-08T08:01:38.102Z,96.47
2016-08-08T08:02:38.104Z,96.37
2016-08-08T08:03:38.097Z,96.66
2016-08-08T08:04:38.102Z,96.7
2016-08-08T08:05:38.733Z,96.85
2016-08-08T08:06:38.110Z,97.19
2016-08-08T08:07:38.095Z,97.09
2016-08-08T08:08:38.105Z,97.76
2016-08-08T08:09:38.118Z,97.96
2016-08-08T08:10:38.195Z,97.38
2016-08-08T08:11:38.141Z,98.24
2016-08-08T08:12:38.117Z,97.86
2016-08-08T08:13:38.108Z,98.53
2016-08-08T08:14:38.114Z,97.62
2016-08-08T08:15:38.177Z,98.24
2016-08-08T08:16:38.142Z,98.63
2016-08-08T08:17:38.127Z,96.7
2016-08-08T08:18:38.199Z,97.42
2016-08-08T08:19:38.165Z,96.94
2016-08-08T08:20:38.153Z,97.24
2016-08-08T08:21:38.137Z,97.04
2016-08-08T08:22:38.135Z,96.75
2016-08-08T08:23:38.137Z,96.94
2016-08-08T08:24:38.231Z,96.56
2016-08-08T08:25:38.150Z,96.66
2016-08-08T08:26:38.169Z,96.47
2016-08-08T08:27:38.143Z,96.22
2016-08-08T08:28:38.136Z,96.03
2016-08-08T08:29:38.138Z,96.32
2016-08-08T08:30:38.137Z,96.03
2016-08-08T08:31:38.201Z,96.32
2016-08-08T08:32:38.146Z,95.36
2016-08-08T08:33:38.184Z,95.65
2016-08-08T08:34:38.196Z,95.07
2016-08-08T08:35:38.193Z,95.07
2016-08-08T08:36:38.148Z,94.78
2016-08-08T08:37:38.198Z,95.02
2016-08-08T08:38:38.186Z,94.44
2016-08-08T08:39:38.152Z,93.57
2016-08-08T08:40:38.149Z,92.32
2016-08-08T08:41:38.154Z,91.99
2016-08-08T08:42:38.161Z,92.47
2016-08-08T08:43:38.139Z,91.69
2016-08-08T08:44:38.136Z,90.34
2016-08-08T08:45:38.213Z,90.44
2016-08-08T08:46:38.181Z,90.39
2016-08-08T08:47:38.175Z,90.2
2016-08-08T08:48:38.277Z,88.95
2016-08-08T08:49:38.153Z,89.14
2016-08-08T08:50:38.171Z,88.79
2016-08-08T08:51:38.178Z,88.12
2016-08-08T08:52:38.221Z,87.06
2016-08-08T08:53:38.209Z,86.96
2016-08-08T08:54:38.188Z,86.96
2016-08-08T08:55:38.177Z,87.16
2016-08-08T08:56:38.400Z,86.29
2016-08-08T08:57:38.214Z,86.24
2016-08-08T08:58:38.221Z,86.58
2016-08-08T08:59:38.169Z,85.85
2016-08-08T09:00:38.160Z,85.08
2016-08-08T09:01:38.170Z,85.75
2016-08-08T09:02:38.196Z,84.59
2016-08-08T09:03:38.231Z,83.73
2016-08-08T09:04:38.928Z,84.01
2016-08-08T09:05:38.162Z,83.09
2016-08-08T09:06:38.176Z,83.48
2016-08-08T09:07:38.171Z,83.77
2016-08-08T09:08:38.158Z,82.81
2016-08-08T09:09:38.177Z,81.74
2016-08-08T09:10:38.185Z,81.59
2016-08-08T09:11:38.213Z,79.5
2016-08-08T09:12:38.198Z,78.83
2016-08-08T09:13:38.171Z,79.22
2016-08-08T09:14:38.250Z,78.83
2016-08-08T09:15:38.181Z,78.83
2016-08-08T09:16:38.178Z,78.92
2016-08-08T09:17:38.188Z,79.47
2016-08-08T09:18:38.166Z,79.47
2016-08-08T09:19:38.220Z,78.73
2016-08-08T09:20:38.169Z,78.15
2016-08-08T09:21:38.185Z,78.54
2016-08-08T09:22:38.200Z,78.73
2016-08-08T09:23:38.513Z,77.42
2016-08-08T09:24:38.203Z,76.26
2016-08-08T09:25:38.166Z,76.16
2016-08-08T09:26:38.201Z,76.39
2016-08-08T09:27:38.520Z,76.64
2016-08-08T09:28:38.208Z,76.55
2016-08-08T09:29:38.211Z,77.22
2016-08-08T09:30:38.277Z,78.29
2016-08-08T09:31:38.199Z,78.73
2016-08-08T09:32:38.253Z,78.64
2016-08-08T09:33:38.207Z,78.64
2016-08-08T09:34:38.190Z,78.44
2016-08-08T09:35:38.201Z,79.95
2016-08-08T09:36:38.204Z,79.08
2016-08-08T09:37:38.185Z,79.17
2016-08-08T09:38:38.255Z,78.46
2016-08-08T09:39:38.299Z,79.95
2016-08-08T09:40:38.187Z,80.87
2016-08-08T09:41:38.563Z,81.45
2016-08-08T09:42:38.431Z,82.03
2016-08-08T09:43:38.107Z,81.41
2016-08-08T09:44:38.216Z,82.48
2016-08-08T09:45:38.192Z,84.01
2016-08-08T09:46:38.326Z,84.01
2016-08-08T09:47:38.201Z,83.78
2016-08-08T09:48:38.233Z,84.55
2016-08-08T09:49:38.221Z,85.23
2016-08-08T09:50:38.258Z,86.44
2016-08-08T09:51:38.233Z,85.86
2016-08-08T09:52:38.274Z,86.35
2016-08-08T09:53:38.212Z,87.02
2016-08-08T09:54:38.445Z,87.6
2016-08-08T09:55:38.245Z,88.75
2016-08-08T09:56:38.281Z,88.17
2016-08-08T09:57:38.269Z,89.29
2016-08-08T09:58:38.233Z,89
2016-08-08T09:59:38.832Z,89.39
2016-08-08T10:00:38.231Z,91.02
2016-08-08T10:01:38.188Z,90.54
2016-08-08T10:02:39.078Z,90.06
2016-08-08T10:03:38.221Z,91.41
2016-08-08T10:04:38.876Z,91.46
2016-08-08T10:05:38.212Z,91.94
2016-08-08T10:06:38.225Z,91.17
2016-08-08T10:07:38.445Z,91.84
2016-08-08T10:08:39.334Z,92.71
2016-08-08T10:09:38.237Z,92.52
2016-08-08T10:10:39.274Z,93.29
2016-08-08T10:11:38.240Z,93.87
2016-08-08T10:12:38.239Z,93.48
2016-08-08T10:14:38.267Z,95.5
2016-08-08T10:15:38.740Z,94.92
2016-08-08T10:16:38.239Z,95.02
2016-08-08T10:17:38.274Z,95.4
2016-08-08T10:18:38.242Z,95.31
2016-08-08T10:19:38.263Z,96.03
2016-08-08T10:20:38.234Z,96.22
2016-08-08T10:21:38.578Z,96.61
2016-08-08T10:22:38.309Z,96.42
2016-08-08T10:23:38.272Z,95.84
2016-08-08T10:24:38.317Z,95.94
2016-08-08T10:25:38.252Z,96.32
2016-08-08T10:26:38.700Z,96.61
2016-08-08T10:27:38.238Z,96.7
2016-08-08T10:29:38.271Z,97.76
2016-08-08T10:30:38.838Z,97.71
2016-08-08T10:31:38.712Z,97.91
2016-08-08T10:32:38.253Z,97.91
2016-08-08T10:33:38.303Z,98
2016-08-08T10:34:38.555Z,98.39
2016-08-08T10:35:38.294Z,98.39
2016-08-08T10:36:38.277Z,98.58
2016-08-08T10:37:38.297Z,99.16
2016-08-08T10:38:38.302Z,99.35
2016-08-08T10:39:38.284Z,99.54
2016-08-08T10:40:38.258Z,99.99
2016-08-08T10:41:38.295Z,99.99
2016-08-08T10:42:38.265Z,99.99
2016-08-08T10:44:38.578Z,99.99
2016-08-08T10:45:38.754Z,99.99
2016-08-08T10:46:38.266Z,99.99
2016-08-08T10:47:38.275Z,99.99
2016-08-08T10:48:38.343Z,99.99
2016-08-08T10:49:38.346Z,99.99
2016-08-08T10:50:38.289Z,99.99
2016-08-08T10:51:38.286Z,99.99
2016-08-08T10:52:38.275Z,99.99
2016-08-08T10:53:38.323Z,99.99
2016-08-08T10:54:38.322Z,99.99
2016-08-08T10:55:38.344Z,99.99
2016-08-08T10:56:38.754Z,99.99
2016-08-08T10:57:38.292Z,99.99
2016-08-08T10:59:38.371Z,99.99
2016-08-08T11:00:38.663Z,99.99
2016-08-08T11:01:38.370Z,99.99
2016-08-08T11:02:39.260Z,99.99
2016-08-08T11:03:38.341Z,99.99
2016-08-08T11:04:38.414Z,99.99
2016-08-08T11:05:38.422Z,99.99
2016-08-08T11:06:38.300Z,99.99
2016-08-08T11:07:38.265Z,99.99
2016-08-08T11:08:38.295Z,99.99
2016-08-08T11:09:38.328Z,99.99
2016-08-08T11:10:38.305Z,99.99
2016-08-08T11:11:38.565Z,99.99
2016-08-08T11:12:38.403Z,99.99
2016-08-08T11:13:38.357Z,99.99
2016-08-08T11:14:38.375Z,99.99
2016-08-08T11:15:39.191Z,99.99
2016-08-08T11:16:38.447Z,99.99
2016-08-08T11:17:38.828Z,99.99
2016-08-08T11:18:38.339Z,99.99
2016-08-08T11:19:38.508Z,99.99
2016-08-08T11:20:38.359Z,99.99
2016-08-08T11:21:38.369Z,99.99
2016-08-08T11:22:39.082Z,99.99
2016-08-08T11:23:38.968Z,99.99
2016-08-08T11:24:38.447Z,99.99
2016-08-08T11:25:38.299Z,99.99
2016-08-08T11:26:38.365Z,99.99
2016-08-08T11:27:38.363Z,99.99
2016-08-08T11:28:38.353Z,99.99
2016-08-08T11:29:39.324Z,99.99
2016-08-08T11:30:38.331Z,99.99
2016-08-08T11:31:38.308Z,99.99
2016-08-08T11:32:38.553Z,99.99
2016-08-08T11:33:38.341Z,99.99
2016-08-08T11:34:38.412Z,99.99
2016-08-08T11:35:38.557Z,99.99
2016-08-08T11:36:38.362Z,99.99
2016-08-08T11:37:38.301Z,99.99
2016-08-08T11:38:38.383Z,99.99
2016-08-08T11:39:38.363Z,99.99
2016-08-08T11:40:38.426Z,99.99
2016-08-08T11:41:38.337Z,99.99
2016-08-08T11:42:38.312Z,99.99
2016-08-08T11:43:38.302Z,99.99
2016-08-08T11:44:38.372Z,99.99
2016-08-08T11:45:38.338Z,99.99
2016-08-08T11:46:38.327Z,99.99
2016-08-08T11:47:38.333Z,99.99
2016-08-08T11:48:38.475Z,99.99
2016-08-08T11:49:38.359Z,99.99
2016-08-08T11:50:38.336Z,99.99
2016-08-08T11:51:38.417Z,99.99
2016-08-08T11:52:38.365Z,99.99
2016-08-08T11:53:38.335Z,99.99
2016-08-08T11:54:38.329Z,99.99
2016-08-08T11:55:38.328Z,99.99
2016-08-08T11:56:38.342Z,99.99
2016-08-08T11:57:38.315Z,99.99
2016-08-08T11:58:38.337Z,99.99
2016-08-08T11:59:38.342Z,99.99
2016-08-08T12:00:38.332Z,99.99
2016-08-08T12:01:38.955Z,99.99
2016-08-08T12:02:38.353Z,99.99
2016-08-08T12:03:38.305Z,99.99
2016-08-08T12:04:38.301Z,99.99
2016-08-08T12:05:38.333Z,99.99
2016-08-08T12:06:38.372Z,99.99
2016-08-08T12:07:38.336Z,99.99
2016-08-08T12:08:38.329Z,99.99
2016-08-08T12:09:38.351Z,99.99
2016-08-08T12:10:38.346Z,99.99
2016-08-08T12:11:38.394Z,99.99
2016-08-08T12:12:38.359Z,99.99
2016-08-08T12:13:38.436Z,99.99
2016-08-08T12:14:38.339Z,99.99
2016-08-08T12:15:38.360Z,99.99
2016-08-08T12:16:38.351Z,99.99
2016-08-08T12:17:38.359Z,99.99
2016-08-08T12:18:38.364Z,99.99
2016-08-08T12:19:38.373Z,99.99
2016-08-08T12:20:38.354Z,99.99
2016-08-08T12:21:38.391Z,99.99
2016-08-08T12:22:38.360Z,99.99
2016-08-08T12:23:38.390Z,99.99
2016-08-08T12:24:38.361Z,99.99
2016-08-08T12:25:38.358Z,99.99
2016-08-08T12:26:38.378Z,99.99
2016-08-08T12:27:38.370Z,99.99
2016-08-08T12:28:38.356Z,98.39
2016-08-08T12:29:38.371Z,96.56
2016-08-08T12:30:38.356Z,95.4
2016-08-08T12:31:38.361Z,95.21
2016-08-08T12:32:39.349Z,96.32
2016-08-08T12:33:38.360Z,96.51
2016-08-08T12:34:38.370Z,96.99
2016-08-08T12:35:38.390Z,96.89
2016-08-08T12:36:39.853Z,96.99
2016-08-08T12:37:38.438Z,94.96
2016-08-08T12:38:38.379Z,93.13
2016-08-08T12:39:39.096Z,92.8
2016-08-08T12:40:38.409Z,92.85
2016-08-08T12:41:38.360Z,92.94
2016-08-08T12:42:38.401Z,93.62
2016-08-08T12:43:38.408Z,93.23
2016-08-08T12:44:38.365Z,94.48
2016-08-08T12:45:38.428Z,94.1
2016-08-08T12:46:38.428Z,96.12
2016-08-08T12:47:38.384Z,96.8
2016-08-08T12:48:38.400Z,97.47
2016-08-08T12:49:38.391Z,96.7
2016-08-08T12:50:38.435Z,97.62
2016-08-08T12:51:38.372Z,95.98
2016-08-08T12:52:38.401Z,95.4
2016-08-08T12:53:38.458Z,97.33
2016-08-08T12:54:38.419Z,97.52
2016-08-08T12:55:38.419Z,97.52
2016-08-08T12:56:38.418Z,98.77
2016-08-08T12:57:38.394Z,96.03
2016-08-08T12:58:38.374Z,96.99
2016-08-08T12:59:38.408Z,94.87
2016-08-08T13:00:38.385Z,93.71
2016-08-08T13:01:38.380Z,92.85
2016-08-08T13:02:38.406Z,92.17
2016-08-08T13:03:38.417Z,91.78
2016-08-08T13:04:38.385Z,89.18
2016-08-08T13:05:38.392Z,87.93